createdAt,value
2018-06-01T00:02:16.511Z,17.20
2018-06-01T00:05:19.015Z,16.80
2018-06-01T00:08:21.527Z,17.77
2018-06-01T00:11:24.044Z,17.80
2018-06-01T00:14:26.551Z,18.43
2018-06-01T00:17:29.063Z,17.97
2018-06-01T00:20:31.546Z,18.33
2018-06-01T00:23:34.837Z,17.87
2018-06-01T00:26:37.358Z,18.57
2018-06-01T00:29:39.874Z,17.90
2018-06-01T00:32:42.383Z,18.73
2018-06-01T00:35:44.859Z,18.13
2018-06-01T00:38:47.338Z,18.27
2018-06-01T00:41:50.621Z,18.33
2018-06-01T00:44:53.154Z,19.67
2018-06-01T00:47:55.652Z,17.87
2018-06-01T00:50:58.162Z,18.27
2018-06-01T00:54:00.655Z,17.03
2018-06-01T00:57:03.156Z,17.93
2018-06-01T01:00:05.638Z,18.60
2018-06-01T01:03:08.134Z,16.97
2018-06-01T01:06:10.610Z,17.73
2018-06-01T01:09:13.118Z,17.20
2018-06-01T01:12:16.434Z,17.37
2018-06-01T01:15:19.724Z,18.47
2018-06-01T01:18:23.034Z,19.23
2018-06-01T01:21:25.554Z,18.13
2018-06-01T01:24:28.051Z,18.47
2018-06-01T01:27:30.534Z,18.97
2018-06-01T01:30:52.154Z,18.73
2018-06-01T01:33:54.666Z,18.80
2018-06-01T01:36:57.948Z,18.00
2018-06-01T01:40:01.183Z,18.63
2018-06-01T01:43:03.700Z,19.50
2018-06-01T01:46:06.268Z,18.13
2018-06-01T01:49:08.755Z,18.87
2018-06-01T01:52:11.274Z,19.60
2018-06-01T01:55:13.824Z,19.57
2018-06-01T01:58:16.349Z,18.57
2018-06-01T02:01:18.880Z,19.60
2018-06-01T02:04:21.388Z,19.13
2018-06-01T02:07:23.888Z,20.47
2018-06-01T02:13:35.355Z,18.43
2018-06-01T02:16:38.614Z,18.77
2018-06-01T02:19:41.131Z,19.43
2018-06-01T02:22:43.620Z,18.40
2018-06-01T02:25:46.135Z,19.00
2018-06-01T02:28:48.638Z,18.43
2018-06-01T02:31:51.140Z,19.10
2018-06-01T02:34:54.423Z,20.03
2018-06-01T02:37:56.895Z,20.13
2018-06-01T02:40:59.371Z,19.57
2018-06-01T02:44:01.854Z,18.50
2018-06-01T02:47:04.323Z,19.63
2018-06-01T02:50:06.820Z,19.90
2018-06-01T02:53:10.083Z,20.00
2018-06-01T02:56:12.571Z,20.20
2018-06-01T02:59:15.866Z,19.53
2018-06-01T03:02:18.354Z,19.67
2018-06-01T03:05:20.939Z,19.00
2018-06-01T03:08:24.224Z,19.57
2018-06-01T03:11:26.732Z,18.73
2018-06-01T03:14:30.028Z,19.97
2018-06-01T03:17:33.293Z,18.10
2018-06-01T03:20:35.788Z,17.87
2018-06-01T03:23:38.335Z,19.57
2018-06-01T03:26:40.822Z,19.60
2018-06-01T03:29:43.318Z,20.70
2018-06-01T03:32:45.830Z,20.60
2018-06-01T03:35:48.327Z,18.37
2018-06-01T03:38:50.821Z,19.13
2018-06-01T03:41:53.301Z,19.33
2018-06-01T03:44:55.794Z,20.30
2018-06-01T03:47:58.299Z,20.20
2018-06-01T03:51:01.546Z,19.23
2018-06-01T03:54:04.064Z,20.80
2018-06-01T03:57:06.567Z,20.13
2018-06-01T04:00:09.058Z,19.37
2018-06-01T04:03:11.583Z,20.33
2018-06-01T04:06:14.114Z,20.90
2018-06-01T04:09:16.951Z,20.90
2018-06-01T04:12:19.409Z,21.73
2018-06-01T04:15:21.903Z,24.80
2018-06-01T04:18:24.431Z,20.90
2018-06-01T04:21:27.003Z,18.63
2018-06-01T04:24:29.495Z,21.40
2018-06-01T04:27:32.027Z,21.03
2018-06-01T04:30:34.559Z,19.90
2018-06-01T04:33:37.034Z,19.80
2018-06-01T04:36:39.554Z,20.57
2018-06-01T04:39:42.821Z,20.93
2018-06-01T04:42:45.298Z,20.23
2018-06-01T04:45:47.782Z,21.23
2018-06-01T04:48:52.035Z,20.80
2018-06-01T04:51:55.291Z,20.53
2018-06-01T04:54:57.779Z,20.57
2018-06-01T04:58:00.262Z,18.70
2018-06-01T05:01:02.933Z,17.77
2018-06-01T05:04:05.433Z,16.87
2018-06-01T05:07:07.898Z,16.47
2018-06-01T05:10:10.387Z,16.40
2018-06-01T05:13:12.888Z,15.50
2018-06-01T05:16:15.360Z,14.00
2018-06-01T05:19:17.876Z,13.23
2018-06-01T05:22:20.385Z,13.10
2018-06-01T05:25:22.887Z,14.27
2018-06-01T05:28:26.159Z,14.10
2018-06-01T05:31:28.649Z,13.27
2018-06-01T05:34:31.883Z,15.03
2018-06-01T05:37:34.375Z,14.03
2018-06-01T05:40:36.890Z,15.33
2018-06-01T05:43:39.380Z,15.60
2018-06-01T05:46:42.671Z,15.07
2018-06-01T05:49:45.938Z,15.17
2018-06-01T05:52:48.429Z,15.17
2018-06-01T05:55:50.960Z,15.03
2018-06-01T05:58:54.041Z,15.83
2018-06-01T06:01:56.552Z,16.43
2018-06-01T06:04:59.055Z,17.97
2018-06-01T06:08:01.542Z,16.03
2018-06-01T06:11:04.820Z,15.70
2018-06-01T06:14:07.299Z,14.07
2018-06-01T06:17:09.791Z,16.83
2018-06-01T06:20:12.272Z,15.13
2018-06-01T06:23:14.779Z,15.50
2018-06-01T06:26:17.412Z,14.43
2018-06-01T06:29:19.939Z,15.27
2018-06-01T06:32:22.421Z,15.50
2018-06-01T06:35:24.915Z,14.63
2018-06-01T06:38:27.399Z,14.43
2018-06-01T06:41:29.904Z,14.60
2018-06-01T06:44:32.385Z,15.10
2018-06-01T06:47:34.861Z,13.23
2018-06-01T06:50:37.357Z,14.80
2018-06-01T06:53:40.602Z,14.10
2018-06-01T06:56:43.083Z,12.40
2018-06-01T06:59:48.808Z,12.47
2018-06-01T07:02:51.290Z,13.37
2018-06-01T07:05:53.811Z,14.50
2018-06-01T07:08:56.311Z,14.00
2018-06-01T07:11:58.826Z,13.93
2018-06-01T07:15:01.333Z,14.33
2018-06-01T07:18:03.838Z,14.33
2018-06-01T07:21:06.346Z,15.00
2018-06-01T07:24:08.834Z,14.07
2018-06-01T07:27:11.343Z,14.07
2018-06-01T07:30:13.985Z,17.27
2018-06-01T07:33:16.514Z,13.40
2018-06-01T07:36:18.982Z,14.23
2018-06-01T07:39:21.468Z,16.70
2018-06-01T07:42:23.955Z,15.07
2018-06-01T07:45:26.442Z,16.47
2018-06-01T07:48:28.952Z,14.73
2018-06-01T07:51:31.467Z,14.97
2018-06-01T07:54:33.997Z,14.50
2018-06-01T07:57:36.471Z,14.37
2018-06-01T08:00:38.946Z,13.73
2018-06-01T08:03:41.432Z,13.33
2018-06-01T08:06:43.970Z,13.13
2018-06-01T08:09:46.463Z,13.17
2018-06-01T08:12:48.954Z,13.43
2018-06-01T08:15:52.202Z,13.77
2018-06-01T08:18:54.700Z,11.77
2018-06-01T08:21:57.251Z,12.27
2018-06-01T08:24:59.746Z,12.70
2018-06-01T08:28:02.232Z,12.10
2018-06-01T08:31:04.782Z,15.93
2018-06-01T08:34:07.246Z,12.17
2018-06-01T08:37:09.771Z,12.57
2018-06-01T08:40:12.266Z,15.03
2018-06-01T08:43:15.542Z,11.90
2018-06-01T08:46:18.122Z,12.87
2018-06-01T08:49:21.406Z,12.33
2018-06-01T08:52:23.941Z,11.87
2018-06-01T08:55:27.154Z,12.53
2018-06-01T08:58:29.622Z,12.53
2018-06-01T09:01:32.121Z,12.07
2018-06-01T09:04:34.603Z,11.40
2018-06-01T09:07:37.116Z,11.87
2018-06-01T09:10:40.373Z,12.33
2018-06-01T09:13:42.906Z,12.97
2018-06-01T09:16:46.267Z,23.20
2018-06-01T09:19:48.708Z,11.67
2018-06-01T09:22:51.288Z,12.67
2018-06-01T09:25:53.771Z,9.50
2018-06-01T09:28:56.258Z,9.30
2018-06-01T09:31:58.737Z,12.60
2018-06-01T09:35:01.988Z,7.10
2018-06-01T09:38:04.475Z,6.80
2018-06-01T09:41:06.959Z,7.13
2018-06-01T09:44:09.467Z,7.63
2018-06-01T09:47:11.938Z,7.47
2018-06-01T09:50:14.419Z,8.57
2018-06-01T09:53:16.904Z,10.57
2018-06-01T09:56:19.386Z,6.63
2018-06-01T09:59:21.865Z,7.73
2018-06-01T10:02:24.384Z,6.70
2018-06-01T10:05:27.639Z,8.30
2018-06-01T10:08:30.123Z,5.47
2018-06-01T10:11:32.699Z,7.50
2018-06-01T10:14:35.175Z,10.43
2018-06-01T10:17:37.639Z,6.83
2018-06-01T10:20:40.090Z,6.70
2018-06-01T10:23:42.558Z,8.33
2018-06-01T10:26:45.012Z,9.63
2018-06-01T10:29:58.285Z,6.40
2018-06-01T10:33:00.764Z,6.33
2018-06-01T10:36:03.202Z,8.73
2018-06-01T10:39:05.671Z,6.27
2018-06-01T10:42:08.904Z,6.80
2018-06-01T10:45:11.361Z,6.73
2018-06-01T10:48:13.798Z,6.33
2018-06-01T10:51:16.250Z,6.83
2018-06-01T10:54:20.729Z,6.30
2018-06-01T10:57:23.208Z,8.30
2018-06-01T11:00:25.661Z,6.70
2018-06-01T11:03:28.888Z,6.93
2018-06-01T11:06:31.505Z,8.17
2018-06-01T11:09:34.022Z,8.00
2018-06-01T11:12:37.242Z,7.33
2018-06-01T11:15:39.690Z,7.73
2018-06-01T11:18:42.914Z,7.63
2018-06-01T11:21:45.353Z,6.80
2018-06-01T11:24:48.578Z,6.67
2018-06-01T11:27:51.047Z,6.23
2018-06-01T11:30:53.493Z,7.47
2018-06-01T11:33:55.937Z,6.50
2018-06-01T11:36:58.394Z,6.00
2018-06-01T11:40:00.845Z,7.20
2018-06-01T11:43:03.305Z,6.73
2018-06-01T11:46:06.542Z,7.30
2018-06-01T11:49:08.994Z,7.57
2018-06-01T11:52:11.455Z,8.33
2018-06-01T11:55:13.899Z,6.50
2018-06-01T11:58:16.350Z,8.00
2018-06-01T12:01:18.810Z,7.67
2018-06-01T12:04:21.269Z,6.60
2018-06-01T12:07:24.494Z,7.27
2018-06-01T12:10:26.946Z,5.80
2018-06-01T12:13:30.178Z,6.27
2018-06-01T12:16:32.633Z,7.80
2018-06-01T12:19:35.102Z,7.67
2018-06-01T12:22:37.546Z,6.53
2018-06-01T12:25:39.993Z,5.80
2018-06-01T12:28:42.470Z,6.03
2018-06-01T12:31:51.817Z,5.93
2018-06-01T12:34:54.267Z,6.10
2018-06-01T12:37:56.734Z,5.50
2018-06-01T12:40:59.181Z,5.23
2018-06-01T12:44:02.409Z,5.53
2018-06-01T12:47:04.854Z,5.90
2018-06-01T12:50:08.069Z,6.17
2018-06-01T12:53:10.530Z,4.90
2018-06-01T12:56:13.762Z,4.80
2018-06-01T12:59:16.217Z,4.90
2018-06-01T13:02:18.657Z,4.37
2018-06-01T13:05:21.118Z,4.10
2018-06-01T13:08:23.574Z,3.63
2018-06-01T13:11:26.022Z,3.87
2018-06-01T13:14:28.487Z,3.70
2018-06-01T13:17:31.707Z,3.70
2018-06-01T13:20:34.198Z,4.20
2018-06-01T13:23:37.365Z,3.37
2018-06-01T13:26:39.883Z,5.90
2018-06-01T13:29:42.368Z,3.60
2018-06-01T13:32:45.077Z,3.63
2018-06-01T13:35:47.525Z,5.93
2018-06-01T13:38:49.971Z,3.67
2018-06-01T13:41:52.441Z,3.53
2018-06-01T13:44:55.645Z,3.77
2018-06-01T13:47:58.110Z,3.93
2018-06-01T13:51:00.551Z,3.43
2018-06-01T13:54:03.776Z,3.50
2018-06-01T13:57:07.033Z,4.47
2018-06-01T14:00:09.486Z,4.33
2018-06-01T14:03:11.942Z,3.97
2018-06-01T14:06:14.380Z,3.93
2018-06-01T14:09:17.652Z,4.60
2018-06-01T14:12:20.054Z,5.47
2018-06-01T14:15:23.276Z,3.40
2018-06-01T14:18:25.729Z,3.17
2018-06-01T14:21:28.182Z,3.23
2018-06-01T14:24:30.629Z,3.93
2018-06-01T14:27:33.090Z,4.63
2018-06-01T14:30:35.554Z,3.50
2018-06-01T14:33:38.058Z,3.30
2018-06-01T14:36:41.248Z,2.67
2018-06-01T14:39:43.698Z,3.07
2018-06-01T14:42:46.137Z,3.73
2018-06-01T14:45:48.585Z,5.13
2018-06-01T14:48:51.050Z,2.63
2018-06-01T14:51:53.503Z,6.20
2018-06-01T14:54:55.982Z,2.90
2018-06-01T14:57:58.509Z,3.40
2018-06-01T15:01:01.759Z,3.03
2018-06-01T15:04:04.214Z,3.50
2018-06-01T15:07:07.433Z,2.90
2018-06-01T15:10:12.474Z,2.73
2018-06-01T15:13:14.925Z,3.33
2018-06-01T15:16:18.146Z,3.10
2018-06-01T15:19:20.593Z,6.23
2018-06-01T15:22:23.818Z,3.03
2018-06-01T15:25:26.261Z,3.30
2018-06-01T15:28:29.498Z,2.70
2018-06-01T15:31:31.925Z,4.20
2018-06-01T15:34:35.149Z,2.90
2018-06-01T15:37:37.585Z,3.57
2018-06-01T15:40:40.041Z,3.20
2018-06-01T15:43:42.507Z,3.03
2018-06-01T15:46:44.969Z,2.53
2018-06-01T15:49:47.425Z,3.50
2018-06-01T15:52:49.877Z,3.60
2018-06-01T15:55:53.102Z,4.60
2018-06-01T15:58:55.559Z,6.23
2018-06-01T16:01:58.766Z,3.00
2018-06-01T16:05:01.222Z,3.93
2018-06-01T16:08:04.431Z,4.40
2018-06-01T16:11:06.882Z,2.70
2018-06-01T16:14:10.131Z,2.90
2018-06-01T16:17:12.558Z,3.30
2018-06-01T16:20:15.779Z,4.43
2018-06-01T16:23:18.235Z,4.80
2018-06-01T16:26:21.454Z,3.87
2018-06-01T16:29:23.918Z,3.43
2018-06-01T16:32:26.374Z,3.23
2018-06-01T16:35:29.601Z,3.23
2018-06-01T16:38:32.060Z,3.77
2018-06-01T16:41:35.285Z,3.93
2018-06-01T16:44:37.741Z,4.30
2018-06-01T16:47:40.206Z,4.20
2018-06-01T16:50:43.442Z,3.53
2018-06-01T16:53:45.894Z,4.70
2018-06-01T16:56:48.346Z,4.67
2018-06-01T16:59:51.566Z,4.43
2018-06-01T17:03:05.334Z,3.30
2018-06-01T17:06:07.843Z,4.23
2018-06-01T17:09:10.295Z,3.30
2018-06-01T17:12:12.749Z,4.57
2018-06-01T17:15:15.218Z,3.10
2018-06-01T17:18:17.667Z,2.90
2018-06-01T17:21:20.890Z,4.00
2018-06-01T17:24:23.341Z,4.70
2018-06-01T17:27:26.565Z,2.67
2018-06-01T17:30:29.014Z,2.67
2018-06-01T17:33:32.236Z,2.93
2018-06-01T17:36:34.682Z,3.17
2018-06-01T17:39:37.922Z,3.07
2018-06-01T17:42:40.354Z,2.50
2018-06-01T17:45:43.577Z,3.23
2018-06-01T17:48:46.022Z,2.50
2018-06-01T17:51:49.270Z,2.87
2018-06-01T17:54:51.722Z,3.83
2018-06-01T17:57:54.162Z,3.20
2018-06-01T18:00:57.386Z,3.43
2018-06-01T18:03:59.839Z,2.40
2018-06-01T18:07:03.161Z,2.93
2018-06-01T18:10:05.610Z,2.70
2018-06-01T18:13:08.831Z,3.23
2018-06-01T18:16:11.285Z,2.13
2018-06-01T18:19:14.509Z,4.07
2018-06-01T18:22:16.952Z,1.90
2018-06-01T18:25:19.405Z,2.47
2018-06-01T18:28:21.849Z,9.07
2018-06-01T18:31:24.298Z,1.77
2018-06-01T18:34:26.761Z,2.00
2018-06-01T18:37:29.974Z,2.00
2018-06-01T18:40:32.431Z,2.83
2018-06-01T18:43:35.654Z,2.60
2018-06-01T18:46:38.126Z,2.00
2018-06-01T18:49:40.581Z,1.90
2018-06-01T18:52:43.792Z,2.13
2018-06-01T18:55:46.245Z,2.10
2018-06-01T18:58:49.463Z,1.70
2018-06-01T19:01:51.926Z,1.70
2018-06-01T19:04:55.158Z,3.47
2018-06-01T19:07:57.611Z,1.60
2018-06-01T19:11:00.068Z,1.97
2018-06-01T19:14:03.287Z,1.40
2018-06-01T19:17:05.757Z,1.50
2018-06-01T19:20:08.970Z,1.40
2018-06-01T19:23:11.425Z,1.43
2018-06-01T19:26:13.873Z,3.03
2018-06-01T19:29:16.322Z,2.17
2018-06-01T19:32:18.773Z,2.03
2018-06-01T19:35:21.242Z,1.70
2018-06-01T19:38:23.689Z,1.77
2018-06-01T19:41:26.137Z,1.57
2018-06-01T19:44:28.590Z,2.10
2018-06-01T19:47:31.841Z,1.43
2018-06-01T19:50:35.074Z,1.97
2018-06-01T19:53:37.517Z,1.40
2018-06-01T19:56:40.746Z,1.20
2018-06-01T19:59:43.194Z,2.37
2018-06-01T20:02:46.405Z,1.80
2018-06-01T20:05:48.853Z,2.43
2018-06-01T20:08:52.469Z,1.70
2018-06-01T20:11:54.922Z,1.47
2018-06-01T20:14:57.374Z,3.63
2018-06-01T20:17:59.841Z,1.70
2018-06-01T20:21:02.294Z,1.93
2018-06-01T20:24:04.734Z,1.40
2018-06-01T20:27:07.189Z,2.80
2018-06-01T20:30:09.651Z,2.50
2018-06-01T20:33:12.085Z,1.97
2018-06-01T20:36:14.565Z,2.53
2018-06-01T20:39:17.039Z,1.90
2018-06-01T20:42:20.249Z,1.83
2018-06-01T20:45:22.701Z,1.90
2018-06-01T20:48:25.913Z,1.70
2018-06-01T20:51:28.399Z,1.80
2018-06-01T20:54:31.585Z,2.17
2018-06-01T20:57:34.042Z,3.10
2018-06-01T21:00:36.495Z,1.77
2018-06-01T21:03:38.938Z,2.43
2018-06-01T21:06:41.402Z,3.13
2018-06-01T21:09:43.858Z,1.80
2018-06-01T21:12:47.062Z,2.17
2018-06-01T21:15:49.517Z,3.67
2018-06-01T21:18:52.764Z,1.80
2018-06-01T21:21:55.255Z,1.63
2018-06-01T21:24:57.830Z,1.63
2018-06-01T21:28:00.475Z,1.60
2018-06-01T21:31:03.257Z,1.93
2018-06-01T21:34:05.866Z,1.27
2018-06-01T21:37:08.481Z,1.30
2018-06-01T21:40:11.049Z,1.87
2018-06-01T21:43:13.786Z,1.43
2018-06-01T21:46:16.584Z,1.60
2018-06-01T21:49:19.042Z,1.50
2018-06-01T21:52:21.497Z,1.40
2018-06-01T21:55:24.729Z,1.37
2018-06-01T21:58:27.241Z,1.30
2018-06-01T22:01:29.725Z,1.53
2018-06-01T22:04:32.176Z,1.70
2018-06-01T22:07:34.643Z,1.47
2018-06-01T22:10:37.102Z,1.37
2018-06-01T22:13:39.546Z,1.80
2018-06-01T22:16:42.778Z,1.20
2018-06-01T22:19:45.225Z,1.80
2018-06-01T22:22:48.453Z,1.67
2018-06-01T22:25:50.912Z,1.60
2018-06-01T22:28:53.773Z,2.67
2018-06-01T22:31:56.994Z,1.60
2018-06-01T22:34:59.445Z,1.77
2018-06-01T22:38:02.666Z,3.07
2018-06-01T22:41:05.126Z,2.00
2018-06-01T22:44:07.582Z,1.67
2018-06-01T22:47:10.049Z,2.03
2018-06-01T22:50:12.506Z,2.27
2018-06-01T22:53:14.958Z,2.50
2018-06-01T22:56:17.413Z,2.27
2018-06-01T22:59:20.675Z,1.60
2018-06-01T23:02:23.120Z,1.73
2018-06-01T23:05:25.565Z,2.07
2018-06-01T23:08:28.034Z,1.80
2018-06-01T23:11:31.255Z,1.70
2018-06-01T23:14:33.730Z,1.60
2018-06-01T23:17:36.191Z,2.17
2018-06-01T23:20:38.641Z,2.60
2018-06-01T23:23:41.868Z,1.60
2018-06-01T23:26:44.318Z,2.50
2018-06-01T23:29:47.542Z,2.10
2018-06-01T23:32:49.993Z,1.80
2018-06-01T23:35:53.230Z,1.97
2018-06-01T23:38:55.681Z,2.67
2018-06-01T23:41:58.138Z,1.83
2018-06-01T23:45:01.359Z,2.00
2018-06-01T23:48:03.811Z,2.63
2018-06-01T23:51:07.066Z,1.80
2018-06-01T23:54:09.508Z,2.03
2018-06-01T23:57:11.970Z,1.83
